sensor_id;sensor_type;location;lat;lon;timestamp;temperature;humidity
27559;DHT22;15002;52.028;5.670;2022-08-19T00:01:49;22.30;99.90
27559;DHT22;15002;52.028;5.670;2022-08-19T00:04:17;22.30;99.90
27559;DHT22;15002;52.028;5.670;2022-08-19T00:06:45;22.40;99.90
27559;DHT22;15002;52.028;5.670;2022-08-19T00:09:13;22.20;99.90
27559;DHT22;15002;52.028;5.670;2022-08-19T00:11:40;22.10;99.90
27559;DHT22;15002;52.028;5.670;2022-08-19T00:14:08;22.20;99.90
27559;DHT22;15002;52.028;5.670;2022-08-19T00:16:36;22.20;99.90
27559;DHT22;15002;52.028;5.670;2022-08-19T00:19:02;22.10;99.90
27559;DHT22;15002;52.028;5.670;2022-08-19T00:21:28;22.20;99.90
27559;DHT22;15002;52.028;5.670;2022-08-19T00:23:55;22.20;99.90
27559;DHT22;15002;52.028;5.670;2022-08-19T00:26:24;22.20;99.90
27559;DHT22;15002;52.028;5.670;2022-08-19T00:28:50;22.20;99.90
27559;DHT22;15002;52.028;5.670;2022-08-19T00:31:16;22.30;99.90
27559;DHT22;15002;52.028;5.670;2022-08-19T00:33:42;22.20;99.90
27559;DHT22;15002;52.028;5.670;2022-08-19T00:36:11;22.20;99.90
27559;DHT22;15002;52.028;5.670;2022-08-19T00:38:38;22.10;99.90
27559;DHT22;15002;52.028;5.670;2022-08-19T00:41:13;22.20;99.90
27559;DHT22;15002;52.028;5.670;2022-08-19T00:43:40;22.10;99.90
27559;DHT22;15002;52.028;5.670;2022-08-19T00:46:06;22.10;99.90
27559;DHT22;15002;52.028;5.670;2022-08-19T00:48:33;22.00;99.90
27559;DHT22;15002;52.028;5.670;2022-08-19T00:50:59;22.10;99.90
27559;DHT22;15002;52.028;5.670;2022-08-19T00:53:27;22.10;99.90
27559;DHT22;15002;52.028;5.670;2022-08-19T00:55:57;22.10;99.90
27559;DHT22;15002;52.028;5.670;2022-08-19T00:58:27;22.10;99.90
27559;DHT22;15002;52.028;5.670;2022-08-19T01:00:54;22.10;99.90
27559;DHT22;15002;52.028;5.670;2022-08-19T01:03:21;22.00;99.90
27559;DHT22;15002;52.028;5.670;2022-08-19T01:05:47;22.00;99.90
27559;DHT22;15002;52.028;5.670;2022-08-19T01:08:15;22.00;99.90
27559;DHT22;15002;52.028;5.670;2022-08-19T01:10:45;22.00;99.90
27559;DHT22;15002;52.028;5.670;2022-08-19T01:13:14;22.00;99.90
27559;DHT22;15002;52.028;5.670;2022-08-19T01:15:46;21.90;99.90
27559;DHT22;15002;52.028;5.670;2022-08-19T01:18:15;21.90;99.90
27559;DHT22;15002;52.028;5.670;2022-08-19T01:20:42;21.90;99.90
27559;DHT22;15002;52.028;5.670;2022-08-19T01:23:09;21.80;99.90
27559;DHT22;15002;52.028;5.670;2022-08-19T01:25:49;21.80;99.90
27559;DHT22;15002;52.028;5.670;2022-08-19T01:28:26;21.90;99.90
27559;DHT22;15002;52.028;5.670;2022-08-19T01:30:53;22.00;99.90
27559;DHT22;15002;52.028;5.670;2022-08-19T01:33:19;21.90;99.90
27559;DHT22;15002;52.028;5.670;2022-08-19T01:35:45;21.90;99.90
27559;DHT22;15002;52.028;5.670;2022-08-19T01:38:23;21.80;99.90
27559;DHT22;15002;52.028;5.670;2022-08-19T01:40:49;21.80;99.90
27559;DHT22;15002;52.028;5.670;2022-08-19T01:43:14;21.70;99.90
27559;DHT22;15002;52.028;5.670;2022-08-19T01:45:40;21.70;99.90
27559;DHT22;15002;52.028;5.670;2022-08-19T01:48:09;21.60;99.90
27559;DHT22;15002;52.028;5.670;2022-08-19T01:50:36;21.60;99.90
27559;DHT22;15002;52.028;5.670;2022-08-19T01:53:04;21.60;99.90
27559;DHT22;15002;52.028;5.670;2022-08-19T01:55:30;21.50;99.90
27559;DHT22;15002;52.028;5.670;2022-08-19T01:57:58;21.50;99.90
27559;DHT22;15002;52.028;5.670;2022-08-19T02:00:26;21.60;99.90
27559;DHT22;15002;52.028;5.670;2022-08-19T02:02:53;21.60;99.90
27559;DHT22;15002;52.028;5.670;2022-08-19T02:05:19;21.60;99.90
27559;DHT22;15002;52.028;5.670;2022-08-19T02:07:47;21.50;99.90
27559;DHT22;15002;52.028;5.670;2022-08-19T02:10:20;21.40;99.90
27559;DHT22;15002;52.028;5.670;2022-08-19T02:12:47;21.50;99.90
27559;DHT22;15002;52.028;5.670;2022-08-19T02:15:15;21.50;99.90
27559;DHT22;15002;52.028;5.670;2022-08-19T02:17:41;21.40;99.90
27559;DHT22;15002;52.028;5.670;2022-08-19T02:20:07;21.40;99.90
27559;DHT22;15002;52.028;5.670;2022-08-19T02:22:33;21.50;99.90
27559;DHT22;15002;52.028;5.670;2022-08-19T02:24:59;21.60;99.90
27559;DHT22;15002;52.028;5.670;2022-08-19T02:27:25;21.70;99.90
27559;DHT22;15002;52.028;5.670;2022-08-19T02:29:51;21.80;99.90
27559;DHT22;15002;52.028;5.670;2022-08-19T02:32:18;21.80;99.90
27559;DHT22;15002;52.028;5.670;2022-08-19T02:34:47;21.80;99.90
27559;DHT22;15002;52.028;5.670;2022-08-19T02:37:13;21.70;99.90
27559;DHT22;15002;52.028;5.670;2022-08-19T02:39:58;21.60;99.90
27559;DHT22;15002;52.028;5.670;2022-08-19T02:42:24;21.50;99.90
27559;DHT22;15002;52.028;5.670;2022-08-19T02:44:51;21.40;99.90
27559;DHT22;15002;52.028;5.670;2022-08-19T02:47:20;21.30;99.90
27559;DHT22;15002;52.028;5.670;2022-08-19T02:49:46;21.10;99.90
27559;DHT22;15002;52.028;5.670;2022-08-19T02:52:15;21.10;99.90
27559;DHT22;15002;52.028;5.670;2022-08-19T02:54:41;21.10;99.90
27559;DHT22;15002;52.028;5.670;2022-08-19T02:57:07;21.20;99.90
27559;DHT22;15002;52.028;5.670;2022-08-19T02:59:33;21.20;99.90
27559;DHT22;15002;52.028;5.670;2022-08-19T03:01:59;21.00;99.90
27559;DHT22;15002;52.028;5.670;2022-08-19T03:04:25;21.10;99.90
27559;DHT22;15002;52.028;5.670;2022-08-19T03:06:51;21.10;99.90
27559;DHT22;15002;52.028;5.670;2022-08-19T03:09:18;21.10;99.90
27559;DHT22;15002;52.028;5.670;2022-08-19T03:11:45;21.10;99.90
27559;DHT22;15002;52.028;5.670;2022-08-19T03:14:11;21.10;99.90
27559;DHT22;15002;52.028;5.670;2022-08-19T03:16:49;21.10;99.90
27559;DHT22;15002;52.028;5.670;2022-08-19T03:19:17;21.10;99.90
27559;DHT22;15002;52.028;5.670;2022-08-19T03:21:44;21.00;99.90
27559;DHT22;15002;52.028;5.670;2022-08-19T03:24:11;21.10;99.90
27559;DHT22;15002;52.028;5.670;2022-08-19T03:26:45;21.00;99.90
27559;DHT22;15002;52.028;5.670;2022-08-19T03:29:12;21.00;99.90
27559;DHT22;15002;52.028;5.670;2022-08-19T03:31:39;20.90;99.90
27559;DHT22;15002;52.028;5.670;2022-08-19T03:34:05;20.90;99.90
27559;DHT22;15002;52.028;5.670;2022-08-19T03:36:31;20.70;99.90
27559;DHT22;15002;52.028;5.670;2022-08-19T03:38:59;20.60;99.90
27559;DHT22;15002;52.028;5.670;2022-08-19T03:41:28;20.70;99.90
27559;DHT22;15002;52.028;5.670;2022-08-19T03:43:56;20.60;99.90
27559;DHT22;15002;52.028;5.670;2022-08-19T03:46:25;20.70;99.90
27559;DHT22;15002;52.028;5.670;2022-08-19T03:48:53;20.70;99.90
27559;DHT22;15002;52.028;5.670;2022-08-19T03:53:50;20.70;99.90
27559;DHT22;15002;52.028;5.670;2022-08-19T03:56:16;20.60;99.90
27559;DHT22;15002;52.028;5.670;2022-08-19T03:58:42;20.50;99.90
27559;DHT22;15002;52.028;5.670;2022-08-19T04:01:10;20.50;99.90
27559;DHT22;15002;52.028;5.670;2022-08-19T04:03:36;20.50;99.90
27559;DHT22;15002;52.028;5.670;2022-08-19T04:06:20;20.50;99.90
27559;DHT22;15002;52.028;5.670;2022-08-19T04:08:48;20.50;99.90
27559;DHT22;15002;52.028;5.670;2022-08-19T04:11:18;20.50;99.90
27559;DHT22;15002;52.028;5.670;2022-08-19T04:13:46;20.50;99.90
27559;DHT22;15002;52.028;5.670;2022-08-19T04:16:12;20.50;99.90
27559;DHT22;15002;52.028;5.670;2022-08-19T04:18:39;20.40;99.90
27559;DHT22;15002;52.028;5.670;2022-08-19T04:21:06;20.40;99.90
27559;DHT22;15002;52.028;5.670;2022-08-19T04:23:34;20.30;99.90
27559;DHT22;15002;52.028;5.670;2022-08-19T04:26:02;20.30;99.90
27559;DHT22;15002;52.028;5.670;2022-08-19T04:28:28;20.30;99.90
27559;DHT22;15002;52.028;5.670;2022-08-19T04:30:54;20.40;99.90
27559;DHT22;15002;52.028;5.670;2022-08-19T04:33:23;20.40;99.90
27559;DHT22;15002;52.028;5.670;2022-08-19T04:35:51;20.40;99.90
27559;DHT22;15002;52.028;5.670;2022-08-19T04:38:21;20.40;99.90
27559;DHT22;15002;52.028;5.670;2022-08-19T04:40:50;20.40;99.90
27559;DHT22;15002;52.028;5.670;2022-08-19T04:43:36;20.40;99.90
27559;DHT22;15002;52.028;5.670;2022-08-19T04:46:10;20.40;99.90
27559;DHT22;15002;52.028;5.670;2022-08-19T04:48:37;20.40;99.90
27559;DHT22;15002;52.028;5.670;2022-08-19T04:51:07;20.30;99.90
27559;DHT22;15002;52.028;5.670;2022-08-19T04:53:35;20.40;99.90
27559;DHT22;15002;52.028;5.670;2022-08-19T04:56:05;20.50;99.90
27559;DHT22;15002;52.028;5.670;2022-08-19T04:58:33;20.60;99.90
27559;DHT22;15002;52.028;5.670;2022-08-19T05:00:58;20.60;99.90
27559;DHT22;15002;52.028;5.670;2022-08-19T05:03:25;20.50;99.90
27559;DHT22;15002;52.028;5.670;2022-08-19T05:05:51;20.40;99.90
27559;DHT22;15002;52.028;5.670;2022-08-19T05:08:20;20.40;99.90
27559;DHT22;15002;52.028;5.670;2022-08-19T05:10:48;20.30;99.90
27559;DHT22;15002;52.028;5.670;2022-08-19T05:13:15;20.40;99.90
27559;DHT22;15002;52.028;5.670;2022-08-19T05:15:42;20.30;99.90
27559;DHT22;15002;52.028;5.670;2022-08-19T05:18:08;20.30;99.90
27559;DHT22;15002;52.028;5.670;2022-08-19T05:20:52;20.50;99.90
27559;DHT22;15002;52.028;5.670;2022-08-19T05:23:36;20.50;99.90
27559;DHT22;15002;52.028;5.670;2022-08-19T05:26:02;20.50;99.90
27559;DHT22;15002;52.028;5.670;2022-08-19T05:28:27;20.50;99.90
27559;DHT22;15002;52.028;5.670;2022-08-19T05:30:53;20.60;99.90
27559;DHT22;15002;52.028;5.670;2022-08-19T05:33:21;20.70;99.90
27559;DHT22;15002;52.028;5.670;2022-08-19T05:35:48;20.70;99.90
27559;DHT22;15002;52.028;5.670;2022-08-19T05:38:15;20.80;99.90
27559;DHT22;15002;52.028;5.670;2022-08-19T05:40:41;20.90;99.90
27559;DHT22;15002;52.028;5.670;2022-08-19T05:43:11;20.90;99.90
27559;DHT22;15002;52.028;5.670;2022-08-19T05:45:40;20.90;99.90
27559;DHT22;15002;52.028;5.670;2022-08-19T05:48:07;21.20;99.90
27559;DHT22;15002;52.028;5.670;2022-08-19T05:50:36;21.20;99.90
27559;DHT22;15002;52.028;5.670;2022-08-19T05:53:02;21.20;99.90
27559;DHT22;15002;52.028;5.670;2022-08-19T05:55:28;21.30;99.90
27559;DHT22;15002;52.028;5.670;2022-08-19T05:57:54;21.40;99.90
27559;DHT22;15002;52.028;5.670;2022-08-19T06:00:19;21.50;99.90
27559;DHT22;15002;52.028;5.670;2022-08-19T06:02:45;21.60;99.90
27559;DHT22;15002;52.028;5.670;2022-08-19T06:05:11;21.70;99.90
27559;DHT22;15002;52.028;5.670;2022-08-19T06:07:38;21.90;99.90
27559;DHT22;15002;52.028;5.670;2022-08-19T06:10:09;22.10;99.90
27559;DHT22;15002;52.028;5.670;2022-08-19T06:12:36;22.20;99.90
27559;DHT22;15002;52.028;5.670;2022-08-19T06:15:08;22.30;99.90
27559;DHT22;15002;52.028;5.670;2022-08-19T06:17:34;22.40;99.90
27559;DHT22;15002;52.028;5.670;2022-08-19T06:20:01;22.40;99.90
27559;DHT22;15002;52.028;5.670;2022-08-19T06:22:27;22.60;99.90
27559;DHT22;15002;52.028;5.670;2022-08-19T06:24:53;22.70;99.90
27559;DHT22;15002;52.028;5.670;2022-08-19T06:27:20;22.80;99.90
27559;DHT22;15002;52.028;5.670;2022-08-19T06:29:46;22.90;99.90
27559;DHT22;15002;52.028;5.670;2022-08-19T06:32:14;23.20;99.90
27559;DHT22;15002;52.028;5.670;2022-08-19T06:34:40;23.20;99.90
27559;DHT22;15002;52.028;5.670;2022-08-19T06:37:06;23.20;99.90
27559;DHT22;15002;52.028;5.670;2022-08-19T06:39:37;23.10;99.90
27559;DHT22;15002;52.028;5.670;2022-08-19T06:42:05;23.00;99.90
27559;DHT22;15002;52.028;5.670;2022-08-19T06:44:35;23.00;99.90
27559;DHT22;15002;52.028;5.670;2022-08-19T06:47:03;23.50;99.90
27559;DHT22;15002;52.028;5.670;2022-08-19T06:49:29;23.50;99.90
27559;DHT22;15002;52.028;5.670;2022-08-19T06:51:57;23.50;99.90
27559;DHT22;15002;52.028;5.670;2022-08-19T06:54:24;23.40;99.90
27559;DHT22;15002;52.028;5.670;2022-08-19T06:56:50;23.30;99.90
27559;DHT22;15002;52.028;5.670;2022-08-19T06:59:18;23.00;99.90
27559;DHT22;15002;52.028;5.670;2022-08-19T07:01:46;23.10;99.90
27559;DHT22;15002;52.028;5.670;2022-08-19T07:04:14;23.10;99.90
27559;DHT22;15002;52.028;5.670;2022-08-19T07:06:41;23.30;99.90
27559;DHT22;15002;52.028;5.670;2022-08-19T07:09:08;23.00;99.90
27559;DHT22;15002;52.028;5.670;2022-08-19T07:11:34;22.90;99.90
27559;DHT22;15002;52.028;5.670;2022-08-19T07:14:00;22.90;99.90
27559;DHT22;15002;52.028;5.670;2022-08-19T07:16:26;22.70;99.90
27559;DHT22;15002;52.028;5.670;2022-08-19T07:18:53;22.70;99.90
27559;DHT22;15002;52.028;5.670;2022-08-19T07:21:23;22.80;99.90
27559;DHT22;15002;52.028;5.670;2022-08-19T07:23:50;23.40;99.90
27559;DHT22;15002;52.028;5.670;2022-08-19T07:26:18;23.80;99.90
27559;DHT22;15002;52.028;5.670;2022-08-19T07:28:45;23.90;99.90
27559;DHT22;15002;52.028;5.670;2022-08-19T07:31:15;23.60;99.90
27559;DHT22;15002;52.028;5.670;2022-08-19T07:33:42;23.40;99.90
27559;DHT22;15002;52.028;5.670;2022-08-19T07:36:10;23.30;99.90
27559;DHT22;15002;52.028;5.670;2022-08-19T07:38:40;23.50;99.90
27559;DHT22;15002;52.028;5.670;2022-08-19T07:41:06;23.40;99.90
27559;DHT22;15002;52.028;5.670;2022-08-19T07:43:32;23.10;99.90
27559;DHT22;15002;52.028;5.670;2022-08-19T07:45:58;23.20;99.90
27559;DHT22;15002;52.028;5.670;2022-08-19T07:48:26;23.30;99.90
27559;DHT22;15002;52.028;5.670;2022-08-19T07:50:56;23.40;99.90
27559;DHT22;15002;52.028;5.670;2022-08-19T07:53:24;23.50;99.90
27559;DHT22;15002;52.028;5.670;2022-08-19T07:55:50;23.70;99.90
27559;DHT22;15002;52.028;5.670;2022-08-19T07:58:18;23.70;99.90
27559;DHT22;15002;52.028;5.670;2022-08-19T08:00:47;23.80;99.90
27559;DHT22;15002;52.028;5.670;2022-08-19T08:03:14;24.20;99.90
27559;DHT22;15002;52.028;5.670;2022-08-19T08:05:40;24.70;99.90
27559;DHT22;15002;52.028;5.670;2022-08-19T08:08:24;24.90;99.90
27559;DHT22;15002;52.028;5.670;2022-08-19T08:11:08;25.00;99.60
27559;DHT22;15002;52.028;5.670;2022-08-19T08:13:35;25.10;99.80
27559;DHT22;15002;52.028;5.670;2022-08-19T08:16:01;25.30;99.70
27559;DHT22;15002;52.028;5.670;2022-08-19T08:18:27;25.50;99.00
27559;DHT22;15002;52.028;5.670;2022-08-19T08:20:53;25.80;98.60
27559;DHT22;15002;52.028;5.670;2022-08-19T08:23:18;26.20;97.60
27559;DHT22;15002;52.028;5.670;2022-08-19T08:25:55;26.40;97.10
27559;DHT22;15002;52.028;5.670;2022-08-19T08:28:22;26.70;96.50
27559;DHT22;15002;52.028;5.670;2022-08-19T08:30:49;27.10;96.10
27559;DHT22;15002;52.028;5.670;2022-08-19T08:33:23;27.40;95.40
27559;DHT22;15002;52.028;5.670;2022-08-19T08:35:49;27.60;94.30
27559;DHT22;15002;52.028;5.670;2022-08-19T08:38:15;27.60;94.80
27559;DHT22;15002;52.028;5.670;2022-08-19T08:43:35;27.60;94.50
27559;DHT22;15002;52.028;5.670;2022-08-19T08:46:08;27.90;93.50
27559;DHT22;15002;52.028;5.670;2022-08-19T08:48:44;28.00;93.70
27559;DHT22;15002;52.028;5.670;2022-08-19T08:51:20;27.90;93.40
27559;DHT22;15002;52.028;5.670;2022-08-19T08:53:50;27.80;93.30
27559;DHT22;15002;52.028;5.670;2022-08-19T08:56:17;27.40;93.60
27559;DHT22;15002;52.028;5.670;2022-08-19T08:59:02;27.20;94.40
27559;DHT22;15002;52.028;5.670;2022-08-19T09:01:30;26.90;94.60
27559;DHT22;15002;52.028;5.670;2022-08-19T09:03:56;26.80;94.80
27559;DHT22;15002;52.028;5.670;2022-08-19T09:09:35;26.70;94.60
27559;DHT22;15002;52.028;5.670;2022-08-19T09:17:17;26.70;94.00
27559;DHT22;15002;52.028;5.670;2022-08-19T09:20:04;26.40;94.80
27559;DHT22;15002;52.028;5.670;2022-08-19T09:22:33;26.20;94.80
27559;DHT22;15002;52.028;5.670;2022-08-19T09:24:59;26.40;94.50
27559;DHT22;15002;52.028;5.670;2022-08-19T09:27:26;26.20;94.70
27559;DHT22;15002;52.028;5.670;2022-08-19T09:29:52;26.40;94.50
27559;DHT22;15002;52.028;5.670;2022-08-19T09:32:20;26.30;94.70
27559;DHT22;15002;52.028;5.670;2022-08-19T09:34:46;26.70;94.20
27559;DHT22;15002;52.028;5.670;2022-08-19T09:37:11;26.70;94.20
27559;DHT22;15002;52.028;5.670;2022-08-19T09:39:39;26.60;94.10
27559;DHT22;15002;52.028;5.670;2022-08-19T09:42:07;26.70;94.00
27559;DHT22;15002;52.028;5.670;2022-08-19T09:44:38;26.70;94.10
27559;DHT22;15002;52.028;5.670;2022-08-19T09:47:03;26.60;94.00
27559;DHT22;15002;52.028;5.670;2022-08-19T09:49:30;26.80;93.80
27559;DHT22;15002;52.028;5.670;2022-08-19T09:51:56;26.80;93.70
27559;DHT22;15002;52.028;5.670;2022-08-19T09:54:23;27.10;93.80
27559;DHT22;15002;52.028;5.670;2022-08-19T09:56:49;27.60;92.90
27559;DHT22;15002;52.028;5.670;2022-08-19T09:59:15;27.60;92.70
27559;DHT22;15002;52.028;5.670;2022-08-19T10:01:41;27.30;92.60
27559;DHT22;15002;52.028;5.670;2022-08-19T10:04:07;27.20;92.80
27559;DHT22;15002;52.028;5.670;2022-08-19T10:06:38;27.30;93.20
27559;DHT22;15002;52.028;5.670;2022-08-19T10:09:06;27.20;92.90
27559;DHT22;15002;52.028;5.670;2022-08-19T10:11:33;27.30;92.80
27559;DHT22;15002;52.028;5.670;2022-08-19T10:14:01;27.20;93.20
27559;DHT22;15002;52.028;5.670;2022-08-19T10:16:27;27.30;93.10
27559;DHT22;15002;52.028;5.670;2022-08-19T10:18:54;27.30;92.80
27559;DHT22;15002;52.028;5.670;2022-08-19T10:21:26;27.40;92.90
27559;DHT22;15002;52.028;5.670;2022-08-19T10:23:55;27.30;92.50
27559;DHT22;15002;52.028;5.670;2022-08-19T10:26:29;27.10;93.10
27559;DHT22;15002;52.028;5.670;2022-08-19T10:28:55;27.00;92.50
27559;DHT22;15002;52.028;5.670;2022-08-19T10:31:24;27.00;92.70
27559;DHT22;15002;52.028;5.670;2022-08-19T10:33:50;26.90;93.00
27559;DHT22;15002;52.028;5.670;2022-08-19T10:36:19;27.10;92.70
27559;DHT22;15002;52.028;5.670;2022-08-19T10:38:52;27.20;92.90
27559;DHT22;15002;52.028;5.670;2022-08-19T10:41:23;27.20;92.70
27559;DHT22;15002;52.028;5.670;2022-08-19T10:43:54;27.00;93.00
27559;DHT22;15002;52.028;5.670;2022-08-19T10:46:22;27.10;93.40
27559;DHT22;15002;52.028;5.670;2022-08-19T10:48:50;27.10;92.90
27559;DHT22;15002;52.028;5.670;2022-08-19T10:51:16;27.20;92.30
27559;DHT22;15002;52.028;5.670;2022-08-19T10:54:01;27.40;92.80
27559;DHT22;15002;52.028;5.670;2022-08-19T10:56:28;27.80;92.10
27559;DHT22;15002;52.028;5.670;2022-08-19T10:59:13;27.90;91.50
27559;DHT22;15002;52.028;5.670;2022-08-19T11:01:41;27.80;92.10
27559;DHT22;15002;52.028;5.670;2022-08-19T11:04:07;28.00;91.20
27559;DHT22;15002;52.028;5.670;2022-08-19T11:06:36;28.10;91.30
27559;DHT22;15002;52.028;5.670;2022-08-19T11:09:01;28.20;90.90
27559;DHT22;15002;52.028;5.670;2022-08-19T11:11:27;28.10;91.10
27559;DHT22;15002;52.028;5.670;2022-08-19T11:13:53;27.90;90.90
27559;DHT22;15002;52.028;5.670;2022-08-19T11:16:25;28.30;90.40
27559;DHT22;15002;52.028;5.670;2022-08-19T11:18:53;28.00;91.20
27559;DHT22;15002;52.028;5.670;2022-08-19T11:21:23;28.20;90.90
27559;DHT22;15002;52.028;5.670;2022-08-19T11:23:52;27.70;91.50
27559;DHT22;15002;52.028;5.670;2022-08-19T11:26:19;27.80;91.10
27559;DHT22;15002;52.028;5.670;2022-08-19T11:28:45;27.70;91.20
27559;DHT22;15002;52.028;5.670;2022-08-19T11:31:14;27.60;91.60
27559;DHT22;15002;52.028;5.670;2022-08-19T11:33:40;27.70;91.50
27559;DHT22;15002;52.028;5.670;2022-08-19T11:36:06;27.70;91.20
27559;DHT22;15002;52.028;5.670;2022-08-19T11:38:33;27.50;91.80
27559;DHT22;15002;52.028;5.670;2022-08-19T11:41:02;27.70;91.80
27559;DHT22;15002;52.028;5.670;2022-08-19T11:43:29;27.80;91.50
27559;DHT22;15002;52.028;5.670;2022-08-19T11:45:55;27.80;91.80
27559;DHT22;15002;52.028;5.670;2022-08-19T11:48:21;27.90;91.90
27559;DHT22;15002;52.028;5.670;2022-08-19T11:50:48;28.00;91.80
27559;DHT22;15002;52.028;5.670;2022-08-19T11:53:15;28.00;92.00
27559;DHT22;15002;52.028;5.670;2022-08-19T11:55:41;28.10;92.10
27559;DHT22;15002;52.028;5.670;2022-08-19T11:58:08;28.20;91.70
27559;DHT22;15002;52.028;5.670;2022-08-19T12:00:34;28.30;91.70
27559;DHT22;15002;52.028;5.670;2022-08-19T12:03:02;28.20;91.50
27559;DHT22;15002;52.028;5.670;2022-08-19T12:05:28;28.00;91.60
27559;DHT22;15002;52.028;5.670;2022-08-19T12:07:54;28.10;91.90
27559;DHT22;15002;52.028;5.670;2022-08-19T12:10:20;27.90;91.90
27559;DHT22;15002;52.028;5.670;2022-08-19T12:12:46;28.00;91.70
27559;DHT22;15002;52.028;5.670;2022-08-19T12:15:12;28.10;91.70
27559;DHT22;15002;52.028;5.670;2022-08-19T12:17:40;28.20;91.90
27559;DHT22;15002;52.028;5.670;2022-08-19T12:20:08;28.30;91.00
27559;DHT22;15002;52.028;5.670;2022-08-19T12:22:36;28.00;91.40
27559;DHT22;15002;52.028;5.670;2022-08-19T12:25:02;28.00;92.00
27559;DHT22;15002;52.028;5.670;2022-08-19T12:27:28;27.90;91.90
27559;DHT22;15002;52.028;5.670;2022-08-19T12:29:54;28.10;92.30
27559;DHT22;15002;52.028;5.670;2022-08-19T12:32:19;28.10;91.50
27559;DHT22;15002;52.028;5.670;2022-08-19T12:34:46;28.00;91.90
27559;DHT22;15002;52.028;5.670;2022-08-19T12:37:13;28.00;92.10
27559;DHT22;15002;52.028;5.670;2022-08-19T12:39:40;28.30;92.00
27559;DHT22;15002;52.028;5.670;2022-08-19T12:42:07;28.40;91.30
27559;DHT22;15002;52.028;5.670;2022-08-19T12:44:35;28.50;91.40
27559;DHT22;15002;52.028;5.670;2022-08-19T12:47:01;28.60;91.30
27559;DHT22;15002;52.028;5.670;2022-08-19T12:49:29;28.60;91.30
27559;DHT22;15002;52.028;5.670;2022-08-19T12:51:55;28.80;91.20
27559;DHT22;15002;52.028;5.670;2022-08-19T12:54:20;28.80;90.90
27559;DHT22;15002;52.028;5.670;2022-08-19T12:56:46;28.70;90.90
27559;DHT22;15002;52.028;5.670;2022-08-19T12:59:13;28.50;91.20
27559;DHT22;15002;52.028;5.670;2022-08-19T13:01:39;28.70;90.80
27559;DHT22;15002;52.028;5.670;2022-08-19T13:04:06;28.40;91.10
27559;DHT22;15002;52.028;5.670;2022-08-19T13:06:32;28.40;91.50
27559;DHT22;15002;52.028;5.670;2022-08-19T13:08:57;28.50;91.40
27559;DHT22;15002;52.028;5.670;2022-08-19T13:11:23;28.40;91.20
27559;DHT22;15002;52.028;5.670;2022-08-19T13:13:52;28.40;91.50
27559;DHT22;15002;52.028;5.670;2022-08-19T13:16:20;28.50;91.40
27559;DHT22;15002;52.028;5.670;2022-08-19T13:18:47;28.70;91.30
27559;DHT22;15002;52.028;5.670;2022-08-19T13:21:13;28.60;91.70
27559;DHT22;15002;52.028;5.670;2022-08-19T13:23:39;28.80;91.30
27559;DHT22;15002;52.028;5.670;2022-08-19T13:26:07;28.60;91.40
27559;DHT22;15002;52.028;5.670;2022-08-19T13:28:34;28.60;91.50
27559;DHT22;15002;52.028;5.670;2022-08-19T13:31:19;28.40;91.80
27559;DHT22;15002;52.028;5.670;2022-08-19T13:34:05;28.30;91.90
27559;DHT22;15002;52.028;5.670;2022-08-19T13:36:31;28.20;92.80
27559;DHT22;15002;52.028;5.670;2022-08-19T13:38:57;28.10;94.40
27559;DHT22;15002;52.028;5.670;2022-08-19T13:41:23;27.90;95.20
27559;DHT22;15002;52.028;5.670;2022-08-19T13:43:48;27.80;95.40
27559;DHT22;15002;52.028;5.670;2022-08-19T13:46:15;28.00;95.30
27559;DHT22;15002;52.028;5.670;2022-08-19T13:48:41;27.80;95.20
27559;DHT22;15002;52.028;5.670;2022-08-19T13:51:07;27.60;96.80
27559;DHT22;15002;52.028;5.670;2022-08-19T13:53:38;27.40;97.10
27559;DHT22;15002;52.028;5.670;2022-08-19T13:56:13;27.40;97.20
27559;DHT22;15002;52.028;5.670;2022-08-19T13:58:39;27.40;97.20
27559;DHT22;15002;52.028;5.670;2022-08-19T14:01:06;27.40;97.00
27559;DHT22;15002;52.028;5.670;2022-08-19T14:03:33;27.30;97.60
27559;DHT22;15002;52.028;5.670;2022-08-19T14:05:59;27.30;98.00
27559;DHT22;15002;52.028;5.670;2022-08-19T14:08:25;27.30;97.50
27559;DHT22;15002;52.028;5.670;2022-08-19T14:10:53;27.30;98.20
27559;DHT22;15002;52.028;5.670;2022-08-19T14:13:21;27.30;98.60
27559;DHT22;15002;52.028;5.670;2022-08-19T14:15:47;27.20;98.50
27559;DHT22;15002;52.028;5.670;2022-08-19T14:18:14;27.20;98.90
27559;DHT22;15002;52.028;5.670;2022-08-19T14:20:40;27.20;99.20
27559;DHT22;15002;52.028;5.670;2022-08-19T14:23:05;27.30;99.10
27559;DHT22;15002;52.028;5.670;2022-08-19T14:25:32;27.20;98.50
27559;DHT22;15002;52.028;5.670;2022-08-19T14:27:58;27.20;98.60
27559;DHT22;15002;52.028;5.670;2022-08-19T14:30:28;27.30;99.20
27559;DHT22;15002;52.028;5.670;2022-08-19T14:32:58;27.30;98.80
27559;DHT22;15002;52.028;5.670;2022-08-19T14:35:26;27.30;98.90
27559;DHT22;15002;52.028;5.670;2022-08-19T14:37:54;27.30;98.80
27559;DHT22;15002;52.028;5.670;2022-08-19T14:40:23;27.30;98.40
27559;DHT22;15002;52.028;5.670;2022-08-19T14:42:57;27.50;98.20
27559;DHT22;15002;52.028;5.670;2022-08-19T14:45:26;27.40;98.10
27559;DHT22;15002;52.028;5.670;2022-08-19T14:47:52;27.30;98.70
27559;DHT22;15002;52.028;5.670;2022-08-19T14:50:18;27.20;99.30
27559;DHT22;15002;52.028;5.670;2022-08-19T14:52:48;26.80;99.90
27559;DHT22;15002;52.028;5.670;2022-08-19T14:55:16;26.90;99.90
27559;DHT22;15002;52.028;5.670;2022-08-19T14:57:42;26.90;99.90
27559;DHT22;15002;52.028;5.670;2022-08-19T15:00:09;26.60;99.90
27559;DHT22;15002;52.028;5.670;2022-08-19T15:02:41;26.70;99.90
27559;DHT22;15002;52.028;5.670;2022-08-19T15:05:10;26.70;99.90
27559;DHT22;15002;52.028;5.670;2022-08-19T15:07:36;26.40;99.90
27559;DHT22;15002;52.028;5.670;2022-08-19T15:10:03;26.40;99.90
27559;DHT22;15002;52.028;5.670;2022-08-19T15:12:29;26.50;99.90
27559;DHT22;15002;52.028;5.670;2022-08-19T15:14:54;26.50;99.90
27559;DHT22;15002;52.028;5.670;2022-08-19T15:17:20;26.40;99.90
27559;DHT22;15002;52.028;5.670;2022-08-19T15:19:46;26.40;99.90
27559;DHT22;15002;52.028;5.670;2022-08-19T15:22:12;26.40;99.90
27559;DHT22;15002;52.028;5.670;2022-08-19T15:24:38;26.30;99.90
27559;DHT22;15002;52.028;5.670;2022-08-19T15:27:05;26.20;99.90
27559;DHT22;15002;52.028;5.670;2022-08-19T15:29:31;26.30;99.90
27559;DHT22;15002;52.028;5.670;2022-08-19T15:31:58;26.40;99.90
27559;DHT22;15002;52.028;5.670;2022-08-19T15:34:24;26.20;99.90
27559;DHT22;15002;52.028;5.670;2022-08-19T15:36:53;26.20;99.90
27559;DHT22;15002;52.028;5.670;2022-08-19T15:39:19;26.10;99.90
27559;DHT22;15002;52.028;5.670;2022-08-19T15:41:46;26.10;99.90
27559;DHT22;15002;52.028;5.670;2022-08-19T15:44:16;26.30;99.90
27559;DHT22;15002;52.028;5.670;2022-08-19T15:46:43;26.50;99.90
27559;DHT22;15002;52.028;5.670;2022-08-19T15:49:14;26.30;99.90